createdAt,value
2022-08-02T00:03:58.340Z,0.50
2022-08-02T00:08:59.785Z,0.60
2022-08-02T00:14:01.205Z,0.60
2022-08-02T00:19:02.629Z,0.32
2022-08-02T00:24:28.700Z,0.50
2022-08-02T00:29:25.856Z,0.50
2022-08-02T00:34:32.060Z,0.55
2022-08-02T00:39:36.590Z,0.57
2022-08-02T00:44:38.094Z,0.43
2022-08-02T00:49:39.601Z,0.40
2022-08-02T00:54:41.090Z,0.55
2022-08-02T00:59:42.490Z,0.50
2022-08-02T01:04:43.906Z,0.60
2022-08-02T01:09:45.541Z,0.50
2022-08-02T01:14:47.951Z,0.40
2022-08-02T01:20:07.789Z,0.70
2022-08-02T01:25:22.945Z,0.40
2022-08-02T01:30:24.416Z,0.55
2022-08-02T01:35:47.092Z,0.30
2022-08-02T01:40:52.579Z,0.50
2022-08-02T01:45:54.010Z,0.50
2022-08-02T01:50:57.892Z,0.60
2022-08-02T01:55:59.637Z,0.40
2022-08-02T02:01:01.228Z,0.50
2022-08-02T02:06:03.416Z,0.43
2022-08-02T02:12:06.535Z,0.40
2022-08-02T02:16:27.252Z,0.50
2022-08-02T02:21:28.965Z,0.50
2022-08-02T02:26:32.847Z,0.65
2022-08-02T02:31:37.969Z,0.50
2022-08-02T02:36:41.214Z,0.40
2022-08-02T02:41:42.797Z,0.50
2022-08-02T02:46:44.213Z,0.52
2022-08-02T02:51:45.637Z,0.60
2022-08-02T02:56:47.069Z,0.60
2022-08-02T03:01:55.459Z,0.55
2022-08-02T03:07:00.349Z,0.90
2022-08-02T03:12:01.753Z,0.50
2022-08-02T03:17:03.191Z,0.50
2022-08-02T03:22:04.649Z,0.50
2022-08-02T03:27:06.095Z,0.80
2022-08-02T03:32:07.501Z,0.52
2022-08-02T03:37:08.933Z,0.70
2022-08-02T03:42:10.808Z,0.60
2022-08-02T03:47:17.456Z,0.60
2022-08-02T03:52:18.865Z,0.70
2022-08-02T03:57:20.294Z,0.40
2022-08-02T04:02:21.693Z,0.70
2022-08-02T04:08:33.741Z,0.60
2022-08-02T04:12:44.522Z,0.40
2022-08-02T04:17:49.512Z,0.47
2022-08-02T04:22:59.007Z,0.50
2022-08-02T04:28:16.675Z,0.50
2022-08-02T04:33:19.265Z,0.80
2022-08-02T04:38:20.673Z,0.63
2022-08-02T04:43:22.319Z,0.50
2022-08-02T04:48:24.220Z,0.50
2022-08-02T04:53:25.665Z,0.70
2022-08-02T04:58:42.284Z,0.50
2022-08-02T05:03:43.681Z,0.60
2022-08-02T05:08:52.744Z,0.63
2022-08-02T05:13:58.775Z,0.60
2022-08-02T05:19:01.254Z,0.60
2022-08-02T05:24:04.081Z,0.60
2022-08-02T05:29:05.897Z,0.70
2022-08-02T05:34:11.712Z,0.50
2022-08-02T05:39:18.688Z,0.50
2022-08-02T05:44:20.688Z,0.60
2022-08-02T05:49:22.166Z,0.75
2022-08-02T05:54:39.718Z,0.50
2022-08-02T06:00:17.861Z,0.60
2022-08-02T06:05:20.202Z,0.60
2022-08-02T06:10:21.873Z,0.60
2022-08-02T06:15:23.273Z,0.80
2022-08-02T06:20:24.697Z,0.50
2022-08-02T06:25:51.081Z,0.55
2022-08-02T06:30:47.761Z,0.70
2022-08-02T06:36:05.473Z,0.65
2022-08-02T06:41:09.118Z,0.90
2022-08-02T06:46:38.109Z,0.70
2022-08-02T06:51:34.297Z,0.80
2022-08-02T06:56:35.704Z,0.77
2022-08-02T07:01:38.708Z,0.70
2022-08-02T07:06:40.681Z,0.80
2022-08-02T07:11:42.085Z,0.90
2022-08-02T07:16:43.487Z,0.73
2022-08-02T07:21:57.488Z,0.95
2022-08-02T07:27:11.359Z,0.80
2022-08-02T07:32:15.317Z,0.95
2022-08-02T07:37:35.304Z,0.70
2022-08-02T07:42:38.316Z,0.80
2022-08-02T07:47:40.101Z,0.70
2022-08-02T07:52:41.779Z,1.00
2022-08-02T07:57:46.388Z,0.80
2022-08-02T08:02:48.433Z,0.77
2022-08-02T08:07:49.837Z,0.82
2022-08-02T08:12:51.310Z,1.00
2022-08-02T08:17:52.710Z,1.00
2022-08-02T08:22:54.116Z,0.85
2022-08-02T08:27:55.597Z,0.70
2022-08-02T08:32:58.567Z,0.98
2022-08-02T08:38:04.203Z,0.77
2022-08-02T08:43:08.546Z,1.10
2022-08-02T08:48:15.861Z,1.23
2022-08-02T08:53:36.848Z,1.25
2022-08-02T08:58:38.977Z,1.33
2022-08-02T09:03:40.550Z,1.25
2022-08-02T09:08:41.978Z,1.60
2022-08-02T09:13:56.811Z,1.63
2022-08-02T09:18:58.415Z,1.73
2022-08-02T09:23:59.856Z,1.65
2022-08-02T09:29:01.841Z,1.27
2022-08-02T09:34:03.406Z,1.63
2022-08-02T09:39:06.298Z,1.48
2022-08-02T09:44:15.926Z,1.55
2022-08-02T09:49:18.449Z,1.30
2022-08-02T09:54:24.345Z,1.20
2022-08-02T09:59:26.091Z,1.10
2022-08-02T10:04:29.945Z,1.50
2022-08-02T10:09:32.497Z,1.20
2022-08-02T10:14:34.586Z,1.20
2022-08-02T10:20:00.777Z,1.38
2022-08-02T10:24:57.479Z,1.70
2022-08-02T10:29:59.857Z,2.40
2022-08-02T10:35:18.498Z,1.77
2022-08-02T10:40:26.133Z,1.90
2022-08-02T10:45:27.541Z,2.60
2022-08-02T10:50:47.126Z,6.40
2022-08-02T10:55:48.525Z,6.97
2022-08-02T11:00:50.360Z,6.13
2022-08-02T11:06:07.122Z,5.47
2022-08-02T11:11:08.370Z,4.50
2022-08-02T11:16:12.069Z,3.35
2022-08-02T11:21:26.557Z,3.00
2022-08-02T11:26:30.599Z,2.97
2022-08-02T11:31:39.695Z,2.03
2022-08-02T11:36:50.936Z,2.22
2022-08-02T11:41:57.332Z,2.05
2022-08-02T11:47:03.115Z,1.60
2022-08-02T11:52:06.153Z,1.50
2022-08-02T11:57:17.042Z,1.50
2022-08-02T12:02:25.358Z,1.70
2022-08-02T12:07:36.182Z,1.48
2022-08-02T12:12:57.842Z,1.30
2022-08-02T12:18:18.119Z,1.20
2022-08-02T12:23:19.589Z,1.10
2022-08-02T12:28:22.883Z,1.15
2022-08-02T12:33:25.486Z,1.35
2022-08-02T12:38:26.903Z,1.30
2022-08-02T12:43:28.310Z,1.33
2022-08-02T12:48:37.810Z,1.20
2022-08-02T12:53:39.931Z,1.50
2022-08-02T12:58:50.770Z,1.00
2022-08-02T13:04:09.897Z,1.10
2022-08-02T13:09:15.566Z,1.20
2022-08-02T13:14:16.990Z,1.38
2022-08-02T13:19:18.627Z,1.10
2022-08-02T13:24:39.446Z,1.20
2022-08-02T13:29:41.524Z,0.85
2022-08-02T13:34:42.921Z,1.40
2022-08-02T13:40:00.064Z,0.90
2022-08-02T13:45:13.685Z,1.30
2022-08-02T13:50:15.943Z,1.20
2022-08-02T13:55:17.413Z,1.10
2022-08-02T14:00:18.821Z,1.27
2022-08-02T14:05:47.179Z,0.93
2022-08-02T14:10:50.276Z,1.20
2022-08-02T14:15:51.733Z,0.95
2022-08-02T14:20:53.138Z,1.00
2022-08-02T14:25:54.610Z,0.90
2022-08-02T14:30:56.055Z,0.95
2022-08-02T14:35:57.465Z,0.85
2022-08-02T14:40:58.877Z,0.98
2022-08-02T14:46:00.276Z,1.10
2022-08-02T14:51:01.678Z,1.00
2022-08-02T14:56:03.174Z,1.00
2022-08-02T15:01:04.709Z,1.10
2022-08-02T15:06:06.813Z,0.90
2022-08-02T15:11:08.237Z,0.90
2022-08-02T15:16:09.793Z,1.00
2022-08-02T15:21:40.240Z,0.90
2022-08-02T15:26:32.577Z,1.00
2022-08-02T15:31:34.771Z,0.70
2022-08-02T15:36:37.466Z,0.80
2022-08-02T15:41:38.889Z,0.90
2022-08-02T15:46:40.311Z,0.90
2022-08-02T15:51:41.713Z,0.90
2022-08-02T15:56:43.121Z,0.82
2022-08-02T16:01:47.547Z,0.93
2022-08-02T16:06:49.337Z,1.00
2022-08-02T16:11:50.760Z,1.05
2022-08-02T16:16:52.161Z,1.00
2022-08-02T16:21:53.773Z,0.85
2022-08-02T16:26:55.220Z,0.82
2022-08-02T16:31:56.699Z,0.80
2022-08-02T16:36:58.176Z,0.90
2022-08-02T16:41:59.662Z,0.85
2022-08-02T16:47:02.335Z,0.95
2022-08-02T16:52:03.969Z,0.90
2022-08-02T16:57:07.378Z,1.10
2022-08-02T17:02:11.399Z,1.10
2022-08-02T17:08:15.649Z,0.98
2022-08-02T17:12:35.162Z,1.00
2022-08-02T17:17:40.573Z,1.00
2022-08-02T17:22:44.731Z,0.93
2022-08-02T17:27:46.137Z,0.90
2022-08-02T17:32:47.589Z,1.08
2022-08-02T17:37:54.324Z,0.77
2022-08-02T17:42:56.366Z,1.02
2022-08-02T17:48:04.039Z,0.90
2022-08-02T17:53:06.911Z,0.88
2022-08-02T17:58:12.493Z,0.93
2022-08-02T18:03:14.250Z,1.00
2022-08-02T18:08:18.348Z,0.82
2022-08-02T18:13:22.820Z,0.88
2022-08-02T18:18:26.585Z,1.10
2022-08-02T18:23:30.945Z,1.00
2022-08-02T18:28:39.301Z,0.90
2022-08-02T18:33:55.320Z,1.33
2022-08-02T18:39:08.083Z,0.80
2022-08-02T18:44:10.710Z,0.80
2022-08-02T18:49:17.341Z,1.10
2022-08-02T18:54:26.677Z,0.70
2022-08-02T18:59:36.854Z,1.23
2022-08-02T19:04:43.426Z,1.20
2022-08-02T19:09:49.273Z,1.10
2022-08-02T19:14:50.754Z,1.02
2022-08-02T19:19:52.166Z,0.57
2022-08-02T19:25:00.077Z,0.93
2022-08-02T19:30:07.523Z,1.00
2022-08-02T19:35:19.311Z,1.00
2022-08-02T19:40:31.477Z,1.00
2022-08-02T19:45:49.967Z,1.10
2022-08-02T19:50:56.194Z,1.05
2022-08-02T19:56:02.909Z,1.00
2022-08-02T20:01:04.725Z,1.08
2022-08-02T20:06:06.836Z,0.93
2022-08-02T20:16:27.262Z,0.82
2022-08-02T20:21:35.490Z,1.10
2022-08-02T20:26:47.985Z,1.20
2022-08-02T20:31:50.310Z,1.45
2022-08-02T20:36:53.782Z,1.40
2022-08-02T20:41:57.288Z,1.30
2022-08-02T20:47:01.775Z,1.40
2022-08-02T20:52:03.865Z,1.50
2022-08-02T20:57:48.472Z,1.30
2022-08-02T21:02:46.234Z,1.10
2022-08-02T21:07:53.396Z,1.13
2022-08-02T21:12:56.392Z,1.17
2022-08-02T21:18:02.395Z,1.20
2022-08-02T21:23:07.756Z,1.30
2022-08-02T21:28:21.613Z,1.17
2022-08-02T21:33:24.574Z,1.10
2022-08-02T21:38:36.550Z,1.10
2022-08-02T21:43:38.644Z,0.90
2022-08-02T21:48:40.608Z,1.10
2022-08-02T21:53:43.055Z,1.10
2022-08-02T21:58:44.561Z,1.38
2022-08-02T22:03:54.991Z,1.00
2022-08-02T22:08:57.281Z,1.33
2022-08-02T22:13:59.512Z,1.10
2022-08-02T22:19:00.918Z,1.30
2022-08-02T22:24:02.394Z,1.25
2022-08-02T22:29:04.290Z,1.35
2022-08-02T22:34:11.662Z,1.25
2022-08-02T22:39:32.024Z,1.15
2022-08-02T22:44:35.042Z,1.25
2022-08-02T22:49:36.898Z,1.10
2022-08-02T22:54:38.770Z,1.40
2022-08-02T22:59:40.988Z,1.30
2022-08-02T23:04:42.778Z,1.23
2022-08-02T23:09:44.176Z,1.30
2022-08-02T23:14:50.125Z,1.20
2022-08-02T23:19:51.565Z,1.20
2022-08-02T23:24:53.032Z,1.17
2022-08-02T23:29:54.489Z,1.20
2022-08-02T23:34:56.337Z,0.93
2022-08-02T23:39:57.830Z,1.30
2022-08-02T23:44:59.241Z,1.17
2022-08-02T23:50:00.641Z,1.10
2022-08-02T23:55:02.040Z,1.42
